createdAt,value
2019-05-14T00:00:00.011Z,81.9
2019-05-14T00:05:03.253Z,81.8
2019-05-14T00:10:01.191Z,82.3
2019-05-14T00:15:02.018Z,83.3
2019-05-14T00:20:07.234Z,83
2019-05-14T00:25:01.120Z,83.3
2019-05-14T00:30:02.468Z,84.4
2019-05-14T00:35:02.071Z,84.6
2019-05-14T00:40:01.293Z,85.7
2019-05-14T00:45:01.240Z,85.6
2019-05-14T00:50:02.226Z,85.1
2019-05-14T00:55:01.157Z,85.7
2019-05-14T01:00:01.078Z,87.4
2019-05-14T01:05:01.871Z,88.1
2019-05-14T01:10:01.331Z,88.1
2019-05-14T01:15:07.812Z,87.1
2019-05-14T01:20:02.858Z,87.8
2019-05-14T01:25:01.618Z,88.9
2019-05-14T01:30:02.058Z,88.8
2019-05-14T01:35:01.347Z,89
2019-05-14T01:40:01.193Z,89.7
2019-05-14T01:45:02.398Z,90.3
2019-05-14T01:50:02.098Z,90
2019-05-14T01:55:02.139Z,89.8
2019-05-14T02:00:02.275Z,90.1
2019-05-14T02:05:02.053Z,90.1
2019-05-14T02:10:01.177Z,90.4
2019-05-14T02:15:01.873Z,90.5
2019-05-14T02:20:01.985Z,91.9
2019-05-14T02:25:02.357Z,94
2019-05-14T02:30:01.834Z,93.9
2019-05-14T02:34:59.876Z,95.7
2019-05-14T02:40:00.597Z,96.9
2019-05-14T02:45:00.119Z,97.6
2019-05-14T02:50:00.273Z,97.4
2019-05-14T02:54:59.968Z,96.3
2019-05-14T03:00:00.258Z,96.3
2019-05-14T03:04:59.729Z,96.5
2019-05-14T03:09:59.947Z,95.5
2019-05-14T03:14:59.684Z,95.7
2019-05-14T03:20:00.151Z,95.6
2019-05-14T03:24:59.952Z,96
2019-05-14T03:29:59.949Z,96.4
2019-05-14T03:35:04.050Z,95.6
2019-05-14T03:39:59.752Z,96.1
2019-05-14T03:44:59.981Z,97.6
2019-05-14T03:49:59.827Z,98.1
2019-05-14T03:55:03.948Z,97.4
2019-05-14T04:00:00.116Z,97.6
2019-05-14T04:05:00.161Z,97.5
2019-05-14T04:09:59.962Z,97.7
2019-05-14T04:14:59.911Z,96.8
2019-05-14T04:20:00.097Z,96.3
2019-05-14T04:24:59.910Z,96.9
2019-05-14T04:29:59.650Z,97.4
2019-05-14T04:34:59.828Z,96.5
2019-05-14T04:39:59.766Z,96.9
2019-05-14T04:45:05.256Z,96.1
2019-05-14T04:49:59.593Z,95.7
2019-05-14T04:54:59.760Z,95.9
2019-05-14T04:59:59.948Z,96.1
2019-05-14T05:04:59.832Z,95.9
2019-05-14T05:09:59.745Z,95.7
2019-05-14T05:14:59.575Z,95.8
2019-05-14T05:19:59.630Z,95.8
2019-05-14T05:24:59.408Z,94.8
2019-05-14T05:29:59.777Z,95.3
2019-05-14T05:34:59.847Z,95.6
2019-05-14T05:39:59.729Z,94.3
2019-05-14T05:44:59.632Z,93.3
2019-05-14T05:49:59.477Z,92.7
2019-05-14T05:54:59.695Z,92.3
2019-05-14T05:59:59.719Z,91.9
2019-05-14T06:04:59.461Z,91.4
2019-05-14T06:09:59.537Z,89.8
2019-05-14T06:14:59.456Z,89.9
2019-05-14T06:19:59.565Z,88.8
2019-05-14T06:24:59.695Z,89
2019-05-14T06:29:59.425Z,88.6
2019-05-14T06:34:59.652Z,87.2
2019-05-14T06:40:01.617Z,86.4
2019-05-14T06:44:59.394Z,85.5
2019-05-14T06:49:59.641Z,81.4
2019-05-14T06:54:59.422Z,82.7
2019-05-14T06:59:59.520Z,82.3
2019-05-14T07:04:59.612Z,81.5
2019-05-14T07:09:59.651Z,80.1
2019-05-14T07:14:59.535Z,78.7
2019-05-14T07:19:59.215Z,77.4
2019-05-14T07:24:59.346Z,76.3
2019-05-14T07:29:59.388Z,75.9
2019-05-14T07:34:59.722Z,73.9
2019-05-14T07:39:59.378Z,70.9
2019-05-14T07:44:59.567Z,70
2019-05-14T07:49:59.555Z,69
2019-05-14T07:54:59.408Z,68.7
2019-05-14T07:59:59.469Z,68.8
2019-05-14T08:04:59.543Z,69.9
2019-05-14T08:09:59.585Z,69.2
2019-05-14T08:15:14.115Z,68.6
2019-05-14T08:19:59.432Z,66.8
2019-05-14T08:24:59.252Z,65.2
2019-05-14T08:29:59.193Z,63.1
2019-05-14T08:34:59.286Z,61.1
2019-05-14T08:39:59.403Z,61.9
2019-05-14T08:44:59.529Z,62.2
2019-05-14T08:50:00.081Z,61.7
2019-05-14T08:55:07.275Z,60.7
2019-05-14T08:59:59.479Z,60.6
2019-05-14T09:05:03.989Z,59.4
2019-05-14T09:10:00.081Z,60.4
2019-05-14T09:14:59.317Z,60.3
2019-05-14T09:20:06.596Z,60.9
2019-05-14T09:25:00.131Z,60
2019-05-14T09:29:59.157Z,59.3
2019-05-14T09:34:59.175Z,58.1
2019-05-14T09:39:59.364Z,56.5
2019-05-14T09:44:59.704Z,54.9
2019-05-14T09:50:15.093Z,56.1
2019-05-14T09:54:59.090Z,54.9
2019-05-14T09:59:59.177Z,55.6
2019-05-14T10:04:59.885Z,55
2019-05-14T10:09:59.264Z,54.2
2019-05-14T10:14:59.324Z,54.2
2019-05-14T10:19:59.721Z,53.9
2019-05-14T10:24:58.939Z,53.7
2019-05-14T10:29:59.262Z,52.8
2019-05-14T10:34:59.069Z,52.2
2019-05-14T10:39:59.030Z,50.4
2019-05-14T10:44:59.267Z,48.7
2019-05-14T10:49:59.031Z,48.9
2019-05-14T10:54:59.266Z,48.9
2019-05-14T10:59:59.262Z,47.5
2019-05-14T11:04:59.181Z,47.8
2019-05-14T11:09:59.117Z,46.7
2019-05-14T11:14:59.402Z,46.9
2019-05-14T11:19:59.020Z,46.2
2019-05-14T11:24:59.231Z,46.5
2019-05-14T11:29:59.252Z,47.3
2019-05-14T11:34:59.283Z,47.1
2019-05-14T11:39:59.157Z,46.3
2019-05-14T11:44:59.170Z,44.8
2019-05-14T11:49:59.251Z,42.7
2019-05-14T11:54:58.876Z,41.4
2019-05-14T11:59:59.170Z,41.3
2019-05-14T12:04:58.934Z,43.1
2019-05-14T12:09:58.893Z,41.2
2019-05-14T12:14:59.130Z,40.7
2019-05-14T12:19:59.478Z,39.5
2019-05-14T12:24:58.984Z,38.4
2019-05-14T12:29:59.874Z,37.8
2019-05-14T12:34:59.436Z,38.5
2019-05-14T12:39:59.217Z,37.5
2019-05-14T12:44:58.886Z,38.2
2019-05-14T12:49:58.848Z,38.9
2019-05-14T12:54:59.835Z,38.5
2019-05-14T12:59:59.015Z,38.4
2019-05-14T13:05:00.133Z,38.7
2019-05-14T13:09:59.071Z,37.9
2019-05-14T13:14:59.201Z,39.1
2019-05-14T13:19:59.052Z,37.9
2019-05-14T13:24:58.926Z,37.9
2019-05-14T13:29:59.266Z,38
2019-05-14T13:34:59.243Z,37.2
2019-05-14T13:39:59.280Z,36.3
2019-05-14T13:44:59.079Z,36.2
2019-05-14T13:49:59.326Z,36.4
2019-05-14T13:54:58.732Z,36.9
2019-05-14T13:59:59.034Z,34.1
2019-05-14T14:04:59.022Z,35.5
2019-05-14T14:09:59.215Z,35.5
2019-05-14T14:14:58.753Z,35.8
2019-05-14T14:19:59.009Z,35.4
2019-05-14T14:24:59.201Z,35.5
2019-05-14T14:29:58.811Z,36.2
2019-05-14T14:34:59.143Z,36.8
2019-05-14T14:39:59.334Z,34.9
2019-05-14T14:44:58.999Z,34.3
2019-05-14T14:50:00.396Z,37.7
2019-05-14T14:54:59.036Z,41.4
2019-05-14T14:59:58.612Z,42
2019-05-14T15:04:59.576Z,43
2019-05-14T15:09:59.621Z,41.3
2019-05-14T15:14:59.402Z,41.8
2019-05-14T15:19:59.454Z,39.8
2019-05-14T15:24:58.751Z,36.9
2019-05-14T15:29:59.372Z,35.6
2019-05-14T15:34:59.606Z,38.7
2019-05-14T15:39:58.823Z,38.9
2019-05-14T15:44:59.790Z,39.6
2019-05-14T15:49:59.481Z,40
2019-05-14T15:54:58.718Z,42.4
2019-05-14T16:00:00.812Z,41.6
2019-05-14T16:04:59.239Z,41
2019-05-14T16:10:00.946Z,41.6
2019-05-14T16:14:58.543Z,41.4
2019-05-14T16:19:58.766Z,39.9
2019-05-14T16:25:01.022Z,41
2019-05-14T16:29:58.821Z,41.5
2019-05-14T16:34:58.390Z,42
2019-05-14T16:39:58.802Z,40.4
2019-05-14T16:44:58.582Z,40
2019-05-14T16:49:59.183Z,40.9
2019-05-14T16:55:17.305Z,40.4
2019-05-14T16:59:58.659Z,41.2
2019-05-14T17:04:59.083Z,40.6
2019-05-14T17:09:58.669Z,40.4
2019-05-14T17:14:58.754Z,40.8
2019-05-14T17:19:58.835Z,41.3
2019-05-14T17:24:58.727Z,41.1
2019-05-14T17:29:58.938Z,41.3
2019-05-14T17:34:58.743Z,41.6
2019-05-14T17:39:58.378Z,41.6
2019-05-14T17:44:58.994Z,41.7
2019-05-14T17:49:59.060Z,43.2
2019-05-14T17:54:58.643Z,43.8
2019-05-14T17:59:58.495Z,43.5
2019-05-14T18:04:59.278Z,43.2
2019-05-14T18:09:58.901Z,43.2
2019-05-14T18:14:58.912Z,44
2019-05-14T18:19:58.923Z,45.1
2019-05-14T18:24:59.275Z,45.6
2019-05-14T18:29:59.295Z,48.6
2019-05-14T18:34:58.588Z,56
2019-05-14T18:39:58.753Z,58.1
2019-05-14T18:44:59.091Z,59.9
2019-05-14T18:49:59.499Z,60
2019-05-14T18:54:59.203Z,57.3
2019-05-14T18:59:58.223Z,56.5
2019-05-14T19:04:58.541Z,57
2019-05-14T19:09:58.792Z,57
2019-05-14T19:14:59.167Z,58.1
2019-05-14T19:19:58.878Z,59.2
2019-05-14T19:24:58.808Z,59.8
2019-05-14T19:29:59.542Z,60.5
2019-05-14T19:34:58.304Z,61
2019-05-14T19:39:58.761Z,61.1
2019-05-14T19:44:59.779Z,61.5
2019-05-14T19:49:58.246Z,62
2019-05-14T19:54:58.413Z,63.1
2019-05-14T19:59:58.432Z,63.6
2019-05-14T20:04:58.935Z,64.2
2019-05-14T20:09:58.815Z,64.1
2019-05-14T20:14:58.556Z,63.5
2019-05-14T20:19:58.315Z,64.1
2019-05-14T20:24:58.940Z,64.1
2019-05-14T20:29:58.435Z,63.6
2019-05-14T20:34:58.322Z,63.7
2019-05-14T20:39:59.115Z,63.9
2019-05-14T20:44:58.389Z,64.4
2019-05-14T20:49:58.138Z,65
2019-05-14T20:54:58.428Z,65.9
2019-05-14T20:59:58.847Z,65.8
2019-05-14T21:05:04.246Z,66.2
2019-05-14T21:09:58.413Z,66
2019-05-14T21:14:59.114Z,66.8
2019-05-14T21:19:58.432Z,68.1
2019-05-14T21:24:58.126Z,68.9
2019-05-14T21:29:58.420Z,69.1
2019-05-14T21:34:58.569Z,69
2019-05-14T21:39:58.385Z,69.7
2019-05-14T21:44:58.549Z,70.4
2019-05-14T21:49:58.351Z,70.5
2019-05-14T21:54:58.686Z,70.1
2019-05-14T21:59:58.830Z,71
2019-05-14T22:05:01.296Z,70.9
2019-05-14T22:09:58.405Z,71.3
2019-05-14T22:14:58.949Z,71.6
2019-05-14T22:19:58.489Z,71.9
2019-05-14T22:24:58.506Z,72.8
2019-05-14T22:29:58.877Z,73.5
2019-05-14T22:34:58.634Z,75
2019-05-14T22:39:59.025Z,74.5
2019-05-14T22:44:58.489Z,75.3
2019-05-14T22:49:59.148Z,75.7
2019-05-14T22:54:58.685Z,75.8
2019-05-14T22:59:58.463Z,75.9
2019-05-14T23:04:58.603Z,76.6
2019-05-14T23:09:59.129Z,76.3
2019-05-14T23:14:58.220Z,76.5
2019-05-14T23:19:58.225Z,76.5
2019-05-14T23:24:59.190Z,77.1
2019-05-14T23:29:58.734Z,78.4
2019-05-14T23:34:58.551Z,77.6
2019-05-14T23:39:58.641Z,78.5
2019-05-14T23:44:58.610Z,79
2019-05-14T23:49:58.466Z,79
2019-05-14T23:54:57.901Z,80.5
2019-05-14T23:59:58.179Z,79.8
